Time;durP1;ratioP1;P1;durP2;ratioP2;P2;SDS_P1;SDS_P2;PMS_P1;PMS_P2;Temp;Humidity;BMP_temperature;BMP_pressure;BME280_temperature;BME280_humidity;BME280_pressure;Samples;Min_cycle;Max_cycle;Signal;HPM_P1;HPM_P2
2021/11/15 00:00:38;;;;;;;189.25;145.90;;;;;;;;;;5073743;28;20206;-91
2021/11/15 00:03:05;;;;;;;261.48;148.63;;;;;;;;;;5073976;28;20569;-92
2021/11/15 00:05:33;;;;;;;361.42;161.00;;;;;;;;;;5074319;28;20194;-92
2021/11/15 00:08:00;;;;;;;335.88;154.73;;;;;;;;;;5074328;28;20211;-92
2021/11/15 00:10:29;;;;;;;244.30;146.80;;;;;;;;;;5074390;28;20203;-92
2021/11/15 00:12:57;;;;;;;200.70;146.68;;;;;;;;;;5074204;28;20210;-92
2021/11/15 00:15:24;;;;;;;184.80;143.03;;;;;;;;;;5073468;28;20305;-91
2021/11/15 00:17:52;;;;;;;223.37;146.37;;;;;;;;;;5073482;28;20460;-92
2021/11/15 00:20:19;;;;;;;230.68;150.02;;;;;;;;;;5074257;28;20440;-92
2021/11/15 00:22:47;;;;;;;243.80;151.13;;;;;;;;;;5073622;28;20687;-92
2021/11/15 00:25:15;;;;;;;191.55;143.25;;;;;;;;;;5074083;28;20907;-91
2021/11/15 00:27:44;;;;;;;311.75;152.98;;;;;;;;;;5073930;28;20183;-92
2021/11/15 00:30:16;;;;;;;309.45;169.75;;;;;;;;;;5074249;28;20211;-92
2021/11/15 00:32:43;;;;;;;286.75;159.00;;;;;;;;;;5073781;28;20202;-92
2021/11/15 00:35:11;;;;;;;298.50;155.38;;;;;;;;;;5075552;28;20225;-91
2021/11/15 00:37:38;;;;;;;334.77;153.88;;;;;;;;;;5078091;28;20214;-91
2021/11/15 00:40:07;;;;;;;399.13;151.73;;;;;;;;;;5076568;28;20197;-92
2021/11/15 00:42:34;;;;;;;398.90;170.07;;;;;;;;;;5080108;28;20202;-91
2021/11/15 00:45:03;;;;;;;339.17;167.18;;;;;;;;;;5075547;28;20232;-91
2021/11/15 00:47:31;;;;;;;338.30;161.02;;;;;;;;;;5056756;28;20187;-92
2021/11/15 00:49:58;;;;;;;320.73;165.52;;;;;;;;;;5056108;28;20199;-92
2021/11/15 00:52:26;;;;;;;267.20;156.25;;;;;;;;;;5073855;28;20270;-92
2021/11/15 00:54:53;;;;;;;298.77;172.60;;;;;;;;;;5073594;28;20231;-92
2021/11/15 00:57:20;;;;;;;267.90;164.00;;;;;;;;;;5073998;28;20226;-91
2021/11/15 00:59:48;;;;;;;294.08;155.70;;;;;;;;;;5073754;28;20458;-92
2021/11/15 01:02:17;;;;;;;310.38;171.68;;;;;;;;;;5073839;28;20222;-92
2021/11/15 01:04:45;;;;;;;226.93;123.65;;;;;;;;;;5073613;28;20206;-93
2021/11/15 01:07:12;;;;;;;322.33;152.13;;;;;;;;;;5074098;28;20574;-92
2021/11/15 01:09:39;;;;;;;303.60;154.57;;;;;;;;;;5073540;28;20203;-91
2021/11/15 01:12:07;;;;;;;151.60;136.10;;;;;;;;;;5073988;28;20563;-90
2021/11/15 01:14:35;;;;;;;264.23;155.93;;;;;;;;;;5073943;28;20483;-92
2021/11/15 01:17:03;;;;;;;331.25;150.02;;;;;;;;;;5073564;28;20209;-92
2021/11/15 01:19:32;;;;;;;205.40;148.05;;;;;;;;;;5073678;28;20267;-91
2021/11/15 01:22:00;;;;;;;358.98;170.10;;;;;;;;;;5073323;28;20213;-92
2021/11/15 01:24:27;;;;;;;420.23;151.57;;;;;;;;;;5055557;28;20259;-90
2021/11/15 01:26:55;;;;;;;342.85;149.10;;;;;;;;;;5058681;28;20627;-92
2021/11/15 01:29:22;;;;;;;298.15;150.02;;;;;;;;;;5076970;28;20194;-92
2021/11/15 01:31:50;;;;;;;207.27;138.07;;;;;;;;;;5076968;28;20206;-93
2021/11/15 01:34:17;;;;;;;221.00;143.93;;;;;;;;;;5076779;28;20597;-92
2021/11/15 01:36:46;;;;;;;312.73;149.10;;;;;;;;;;5077153;28;20447;-92
2021/11/15 01:39:13;;;;;;;31.40;28.67;;;;;;;;;;5076538;28;20234;-92
2021/11/15 01:41:41;;;;;;;257.55;146.88;;;;;;;;;;5076958;28;20427;-92
2021/11/15 01:44:08;;;;;;;305.85;152.23;;;;;;;;;;5076413;28;20202;-92
2021/11/15 01:46:36;;;;;;;378.80;150.32;;;;;;;;;;5076896;28;20629;-92
2021/11/15 01:49:03;;;;;;;327.92;151.82;;;;;;;;;;5076573;28;20195;-92
2021/11/15 01:51:30;;;;;;;362.10;144.10;;;;;;;;;;5076761;28;20225;-90
2021/11/15 01:53:59;;;;;;;407.88;145.18;;;;;;;;;;5076241;28;20303;-92
2021/11/15 01:56:27;;;;;;;309.15;144.32;;;;;;;;;;5076386;28;20734;-92
2021/11/15 01:58:54;;;;;;;337.73;147.20;;;;;;;;;;5076943;28;20187;-92
2021/11/15 02:01:22;;;;;;;335.20;146.57;;;;;;;;;;5058688;28;20198;-91
2021/11/15 02:03:49;;;;;;;263.08;143.32;;;;;;;;;;5076211;28;20202;-92
2021/11/15 02:06:17;;;;;;;194.30;136.32;;;;;;;;;;5076611;28;20205;-89
2021/11/15 02:08:44;;;;;;;231.38;141.50;;;;;;;;;;5076301;28;20191;-92
2021/11/15 02:11:13;;;;;;;198.48;143.07;;;;;;;;;;5076364;28;20202;-92
2021/11/15 02:13:40;;;;;;;236.03;141.53;;;;;;;;;;5076311;28;20552;-91
2021/11/15 02:16:08;;;;;;;186.00;149.35;;;;;;;;;;5075289;28;20493;-91
2021/11/15 02:18:35;;;;;;;223.10;146.32;;;;;;;;;;5058195;28;20248;-92
2021/11/15 02:21:06;;;;;;;184.73;135.53;;;;;;;;;;5058427;28;20202;-91
2021/11/15 02:23:34;;;;;;;130.40;115.97;;;;;;;;;;5076164;28;20437;-91
2021/11/15 02:26:02;;;;;;;135.83;121.73;;;;;;;;;;5075938;28;20549;-91
2021/11/15 02:28:31;;;;;;;145.07;113.43;;;;;;;;;;5057965;28;20566;-92
2021/11/15 02:30:59;;;;;;;209.37;133.93;;;;;;;;;;5076054;28;20195;-91
2021/11/15 02:33:28;;;;;;;168.88;122.25;;;;;;;;;;5058370;28;20491;-92
2021/11/15 02:35:56;;;;;;;157.75;132.05;;;;;;;;;;5075547;28;20226;-91
2021/11/15 02:38:24;;;;;;;173.70;124.43;;;;;;;;;;5075149;28;20198;-92
2021/11/15 02:40:52;;;;;;;178.55;118.88;;;;;;;;;;5075596;28;20202;-91
2021/11/15 02:43:19;;;;;;;143.60;119.05;;;;;;;;;;5075730;28;20233;-92
2021/11/15 02:45:47;;;;;;;141.07;118.13;;;;;;;;;;5075626;28;20184;-92
2021/11/15 02:48:14;;;;;;;123.35;109.43;;;;;;;;;;5075017;28;20443;-92
2021/11/15 02:50:42;;;;;;;38.07;35.00;;;;;;;;;;5057739;28;20253;-92
2021/11/15 02:53:10;;;;;;;178.73;119.75;;;;;;;;;;5075262;28;20485;-92
2021/11/15 02:55:39;;;;;;;124.30;110.30;;;;;;;;;;5075132;28;20217;-92
2021/11/15 02:58:08;;;;;;;243.25;138.93;;;;;;;;;;5075305;28;20223;-92
2021/11/15 03:00:38;;;;;;;332.73;145.98;;;;;;;;;;5075029;28;20205;-92
2021/11/15 03:03:06;;;;;;;230.45;125.85;;;;;;;;;;5075106;28;20222;-92
2021/11/15 03:05:34;;;;;;;251.63;139.38;;;;;;;;;;5075131;28;20641;-92
2021/11/15 03:08:03;;;;;;;246.20;146.35;;;;;;;;;;5075783;28;20187;-92
2021/11/15 03:10:30;;;;;;;259.45;146.90;;;;;;;;;;5081247;28;20190;-91
2021/11/15 03:12:59;;;;;;;233.80;127.65;;;;;;;;;;5076106;28;20184;-92
2021/11/15 03:15:28;;;;;;;263.00;143.75;;;;;;;;;;5083245;28;20215;-91
2021/11/15 03:17:57;;;;;;;176.45;125.38;;;;;;;;;;5079075;28;20191;-92
2021/11/15 03:20:25;;;;;;;175.20;129.48;;;;;;;;;;5057344;28;20256;-92
2021/11/15 03:22:52;;;;;;;174.55;124.53;;;;;;;;;;5074901;28;20210;-92
2021/11/15 03:25:20;;;;;;;312.27;154.27;;;;;;;;;;5074772;28;20261;-92
2021/11/15 03:27:47;;;;;;;248.23;140.65;;;;;;;;;;5074869;28;20208;-92
2021/11/15 03:30:16;;;;;;;127.45;112.28;;;;;;;;;;5074951;28;20195;-92
2021/11/15 03:32:47;;;;;;;122.78;110.93;;;;;;;;;;5074556;28;20199;-92
2021/11/15 03:35:14;;;;;;;101.10;93.27;;;;;;;;;;5074645;28;20577;-92
2021/11/15 03:37:42;;;;;;;126.25;113.43;;;;;;;;;;5074742;28;20422;-92
2021/11/15 03:40:13;;;;;;;153.50;127.50;;;;;;;;;;5074606;28;20191;-92
2021/11/15 03:42:41;;;;;;;118.57;106.53;;;;;;;;;;5074251;28;20671;-92
2021/11/15 03:45:08;;;;;;;133.10;110.85;;;;;;;;;;5074307;28;20445;-92
2021/11/15 03:47:37;;;;;;;141.50;109.25;;;;;;;;;;5074180;28;20206;-92
2021/11/15 03:50:06;;;;;;;128.25;115.00;;;;;;;;;;5073769;28;20210;-92
2021/11/15 03:52:34;;;;;;;141.95;107.28;;;;;;;;;;5074348;28;20261;-92
2021/11/15 03:55:01;;;;;;;146.27;117.22;;;;;;;;;;5074049;28;20190;-92
2021/11/15 03:57:28;;;;;;;144.00;118.53;;;;;;;;;;5074331;28;20688;-91
2021/11/15 03:59:56;;;;;;;134.75;115.97;;;;;;;;;;5074448;28;20462;-91
2021/11/15 04:02:27;;;;;;;129.48;107.80;;;;;;;;;;5074456;28;20206;-92
2021/11/15 04:05:01;;;;;;;154.50;103.07;;;;;;;;;;5056166;28;20255;-92
2021/11/15 04:07:32;;;;;;;131.77;102.70;;;;;;;;;;5074279;28;20198;-92
2021/11/15 04:10:00;;;;;;;142.40;109.10;;;;;;;;;;5074525;28;20264;-92
2021/11/15 04:12:28;;;;;;;115.40;103.40;;;;;;;;;;5073859;28;20209;-92
2021/11/15 04:14:55;;;;;;;112.90;101.93;;;;;;;;;;5073803;28;20705;-92
2021/11/15 04:17:23;;;;;;;126.20;112.60;;;;;;;;;;5073562;28;20548;-91
2021/11/15 04:19:51;;;;;;;109.32;99.30;;;;;;;;;;5073786;28;20217;-92
2021/11/15 04:22:20;;;;;;;94.05;86.43;;;;;;;;;;5056423;28;20199;-92
2021/11/15 04:24:48;;;;;;;110.05;99.32;;;;;;;;;;5073951;28;20712;-92
2021/11/15 04:27:15;;;;;;;106.10;96.57;;;;;;;;;;5074066;28;20192;-93
2021/11/15 04:29:43;;;;;;;94.43;86.20;;;;;;;;;;5073918;28;20712;-92
2021/11/15 04:32:11;;;;;;;115.10;103.63;;;;;;;;;;5056052;28;20449;-91
2021/11/15 04:34:39;;;;;;;86.70;80.43;;;;;;;;;;5074289;28;20866;-92
2021/11/15 04:37:06;;;;;;;78.20;72.97;;;;;;;;;;5073457;28;20383;-92
2021/11/15 04:39:35;;;;;;;83.38;77.18;;;;;;;;;;5074198;28;20858;-92
2021/11/15 04:42:02;;;;;;;133.95;110.78;;;;;;;;;;5073700;28;20194;-92
2021/11/15 04:44:30;;;;;;;82.50;75.60;;;;;;;;;;5073668;28;20207;-91
2021/11/15 04:46:57;;;;;;;180.35;109.93;;;;;;;;;;5073504;28;20457;-92
2021/11/15 04:49:25;;;;;;;106.65;91.80;;;;;;;;;;5055924;28;20199;-92
2021/11/15 04:51:52;;;;;;;127.20;107.78;;;;;;;;;;5073503;28;20197;-92
2021/11/15 04:54:20;;;;;;;180.45;120.40;;;;;;;;;;5073782;28;20235;-92
2021/11/15 04:56:48;;;;;;;187.10;119.88;;;;;;;;;;5074383;28;20265;-92
2021/11/15 04:59:16;;;;;;;246.82;126.18;;;;;;;;;;5073669;28;20255;-92
2021/11/15 05:01:43;;;;;;;221.95;131.90;;;;;;;;;;5077076;28;20263;-92
2021/11/15 05:04:11;;;;;;;168.38;125.07;;;;;;;;;;5077410;28;20214;-92
2021/11/15 05:06:38;;;;;;;112.73;101.53;;;;;;;;;;5077719;28;20204;-92
2021/11/15 05:09:06;;;;;;;108.28;97.57;;;;;;;;;;5077429;28;20904;-93
2021/11/15 05:11:33;;;;;;;92.57;84.18;;;;;;;;;;5077445;28;20224;-92
2021/11/15 05:14:02;;;;;;;106.63;96.00;;;;;;;;;;5077306;28;20188;-92
2021/11/15 05:16:29;;;;;;;103.55;94.05;;;;;;;;;;5077181;28;20230;-92
2021/11/15 05:18:57;;;;;;;108.67;98.60;;;;;;;;;;5077443;28;20206;-92
2021/11/15 05:21:25;;;;;;;72.07;66.37;;;;;;;;;;5077647;28;20524;-92
2021/11/15 05:23:53;;;;;;;39.20;35.33;;;;;;;;;;5059318;28;20438;-92
2021/11/15 05:26:21;;;;;;;103.57;93.22;;;;;;;;;;5077384;28;20453;-92
2021/11/15 05:28:48;;;;;;;30.67;27.97;;;;;;;;;;5076981;28;20199;-93
2021/11/15 05:31:17;;;;;;;31.35;28.42;;;;;;;;;;5059193;28;20419;-93
2021/11/15 05:33:45;;;;;;;30.53;27.57;;;;;;;;;;5076979;28;20204;-92
2021/11/15 05:36:12;;;;;;;36.53;33.63;;;;;;;;;;5059284;28;20513;-92
2021/11/15 05:38:39;;;;;;;38.40;34.80;;;;;;;;;;5058649;28;20423;-92
2021/11/15 05:41:07;;;;;;;31.43;28.63;;;;;;;;;;5077712;28;20468;-92
2021/11/15 05:43:34;;;;;;;43.13;39.60;;;;;;;;;;5063196;28;20783;-92
2021/11/15 05:46:02;;;;;;;29.13;26.43;;;;;;;;;;5077791;28;20452;-91
2021/11/15 05:48:31;;;;;;;30.15;27.35;;;;;;;;;;5081494;28;20415;-92
2021/11/15 05:50:58;;;;;;;26.40;24.30;;;;;;;;;;5061877;28;20210;-92
2021/11/15 05:53:25;;;;;;;29.25;26.63;;;;;;;;;;5076487;28;20477;-92
2021/11/15 05:55:53;;;;;;;40.07;37.23;;;;;;;;;;5076585;28;20202;-92
2021/11/15 05:58:20;;;;;;;28.27;25.77;;;;;;;;;;5076756;28;20462;-93
2021/11/15 06:00:48;;;;;;;28.70;26.23;;;;;;;;;;5076396;28;20464;-92
2021/11/15 06:03:16;;;;;;;43.53;40.72;;;;;;;;;;5076451;28;20786;-92
2021/11/15 06:05:45;;;;;;;27.20;24.98;;;;;;;;;;5076737;28;20225;-93
2021/11/15 06:08:12;;;;;;;33.67;30.67;;;;;;;;;;5075948;28;20220;-93
2021/11/15 06:10:39;;;;;;;27.20;25.40;;;;;;;;;;5076089;28;20409;-93
2021/11/15 06:13:07;;;;;;;28.63;26.23;;;;;;;;;;5075211;28;20420;-92
2021/11/15 06:15:34;;;;;;;27.80;25.70;;;;;;;;;;5076621;28;20195;-93
2021/11/15 06:18:01;;;;;;;29.53;27.17;;;;;;;;;;5075903;28;20231;-93
2021/11/15 06:20:29;;;;;;;27.70;25.50;;;;;;;;;;5076045;28;20939;-93
2021/11/15 06:22:58;;;;;;;30.63;27.92;;;;;;;;;;5076195;28;20191;-93
2021/11/15 06:25:25;;;;;;;78.80;73.45;;;;;;;;;;5075968;28;20234;-92
2021/11/15 06:27:53;;;;;;;87.05;81.03;;;;;;;;;;5076278;28;20214;-93
2021/11/15 06:30:21;;;;;;;97.40;88.82;;;;;;;;;;5076086;28;20525;-93
2021/11/15 06:32:48;;;;;;;64.88;60.55;;;;;;;;;;5076271;28;20194;-93
2021/11/15 06:35:16;;;;;;;84.93;78.93;;;;;;;;;;5075721;28;20191;-93
2021/11/15 06:37:44;;;;;;;93.20;86.15;;;;;;;;;;5075789;28;20495;-92
2021/11/15 06:40:14;;;;;;;104.53;95.73;;;;;;;;;;5058012;28;20207;-92
2021/11/15 06:42:41;;;;;;;32.80;30.20;;;;;;;;;;5075435;28;20469;-93
2021/11/15 06:45:09;;;;;;;100.97;93.68;;;;;;;;;;5075458;28;20431;-92
2021/11/15 06:47:38;;;;;;;110.50;100.82;;;;;;;;;;5057729;28;20206;-93
2021/11/15 06:50:06;;;;;;;162.00;124.15;;;;;;;;;;5075829;28;20184;-93
2021/11/15 06:52:34;;;;;;;144.90;113.72;;;;;;;;;;5075646;28;20234;-93
2021/11/15 06:55:01;;;;;;;29.42;26.83;;;;;;;;;;5075133;28;20378;-92
2021/11/15 06:57:30;;;;;;;98.32;90.57;;;;;;;;;;5057227;28;20223;-93
2021/11/15 06:59:58;;;;;;;74.82;69.47;;;;;;;;;;5075485;28;20290;-93
2021/11/15 07:02:25;;;;;;;37.40;34.45;;;;;;;;;;5075386;28;20203;-93
2021/11/15 07:04:53;;;;;;;106.40;97.35;;;;;;;;;;5075110;28;20202;-93
2021/11/15 07:07:20;;;;;;;30.88;28.08;;;;;;;;;;5075410;28;20285;-93
2021/11/15 07:09:49;;;;;;;156.70;117.15;;;;;;;;;;5075282;28;20194;-93
2021/11/15 07:12:16;;;;;;;114.55;102.78;;;;;;;;;;5075354;28;20713;-93
2021/11/15 07:14:45;;;;;;;116.60;104.93;;;;;;;;;;5075367;28;20507;-92
2021/11/15 07:17:13;;;;;;;100.38;92.50;;;;;;;;;;5074825;28;20234;-93
2021/11/15 07:19:40;;;;;;;31.90;28.77;;;;;;;;;;5078034;28;20298;-93
2021/11/15 07:22:10;;;;;;;31.85;29.02;;;;;;;;;;5077180;28;20207;-93
2021/11/15 07:24:37;;;;;;;29.20;26.47;;;;;;;;;;5075986;28;20205;-93
2021/11/15 07:27:05;;;;;;;73.72;67.43;;;;;;;;;;5074832;28;20464;-92
2021/11/15 07:29:32;;;;;;;32.60;29.70;;;;;;;;;;5074872;28;20202;-92
2021/11/15 07:32:08;;;;;;;32.30;29.50;;;;;;;;;;5074548;28;20201;-93
2021/11/15 07:34:35;;;;;;;34.73;31.43;;;;;;;;;;5074566;28;20930;-93
2021/11/15 07:37:02;;;;;;;34.17;30.88;;;;;;;;;;5074909;28;20482;-93
2021/11/15 07:39:30;;;;;;;35.22;31.75;;;;;;;;;;5074122;28;20687;-93
2021/11/15 07:41:57;;;;;;;35.58;32.08;;;;;;;;;;5056841;28;20229;-93
2021/11/15 07:44:24;;;;;;;36.65;32.78;;;;;;;;;;5074339;28;20209;-94
2021/11/15 07:46:52;;;;;;;36.60;32.72;;;;;;;;;;5056522;28;20207;-94
2021/11/15 07:49:21;;;;;;;34.10;30.70;;;;;;;;;;5074522;28;20198;-94
2021/11/15 07:51:48;;;;;;;38.03;31.70;;;;;;;;;;5075076;28;20430;-93
2021/11/15 07:54:15;;;;;;;32.58;29.27;;;;;;;;;;5056719;28;20487;-87
2021/11/15 07:56:43;;;;;;;33.92;30.45;;;;;;;;;;5074079;28;20235;-91
2021/11/15 07:59:10;;;;;;;35.40;31.83;;;;;;;;;;5074791;28;20206;-88
2021/11/15 08:01:37;;;;;;;41.25;31.50;;;;;;;;;;5074539;28;20202;-90
2021/11/15 08:04:05;;;;;;;38.22;32.90;;;;;;;;;;5074332;28;20305;-96
2021/11/15 08:06:34;;;;;;;35.22;31.50;;;;;;;;;;5074178;28;20196;-92
2021/11/15 08:09:01;;;;;;;35.67;32.03;;;;;;;;;;5074110;28;20643;-91
2021/11/15 08:11:30;;;;;;;35.13;30.98;;;;;;;;;;5073929;28;20444;-91
2021/11/15 08:13:58;;;;;;;32.45;29.08;;;;;;;;;;5074243;28;20591;-91
2021/11/15 08:16:25;;;;;;;35.20;30.33;;;;;;;;;;5073885;28;20285;-92
2021/11/15 08:18:53;;;;;;;41.90;34.10;;;;;;;;;;5073770;28;20198;-92
2021/11/15 08:21:21;;;;;;;41.33;35.00;;;;;;;;;;5073889;28;20200;-95
2021/11/15 08:23:50;;;;;;;41.90;34.35;;;;;;;;;;5074146;28;20209;-95
2021/11/15 08:26:30;;;;;;;40.80;36.47;;;;;;;;;;5074185;28;20219;-89
2021/11/15 08:29:01;;;;;;;36.63;32.90;;;;;;;;;;5074506;28;20556;-95
2021/11/15 08:31:29;;;;;;;44.13;35.00;;;;;;;;;;5074298;28;20221;-85
2021/11/15 08:33:56;;;;;;;37.70;33.30;;;;;;;;;;5073351;28;20437;-85
2021/11/15 08:36:24;;;;;;;49.00;37.05;;;;;;;;;;5076246;28;20230;-87
2021/11/15 08:38:55;;;;;;;38.45;33.72;;;;;;;;;;5078283;28;20554;-90
2021/11/15 08:41:24;;;;;;;42.17;34.28;;;;;;;;;;5077872;28;20206;-88
2021/11/15 08:43:52;;;;;;;51.60;35.90;;;;;;;;;;5078071;28;20566;-88
2021/11/15 08:46:20;;;;;;;47.87;36.17;;;;;;;;;;5077851;28;20236;-89
2021/11/15 08:48:48;;;;;;;40.90;34.00;;;;;;;;;;5077475;28;20424;-88
2021/11/15 08:51:16;;;;;;;41.05;33.03;;;;;;;;;;5077580;28;20658;-89
2021/11/15 08:53:44;;;;;;;42.72;35.90;;;;;;;;;;5077401;28;20584;-89
2021/11/15 08:56:14;;;;;;;36.80;32.83;;;;;;;;;;5077799;28;20227;-89
2021/11/15 08:58:41;;;;;;;38.97;33.03;;;;;;;;;;5077331;28;21012;-89
2021/11/15 09:01:09;;;;;;;39.40;32.20;;;;;;;;;;5077574;28;20213;-89
2021/11/15 09:03:38;;;;;;;41.80;35.77;;;;;;;;;;5077561;28;20802;-90
2021/11/15 09:06:06;;;;;;;32.75;29.40;;;;;;;;;;5077636;28;20437;-89
2021/11/15 09:08:34;;;;;;;38.58;34.25;;;;;;;;;;5077750;28;20201;-89
2021/11/15 09:11:02;;;;;;;36.75;32.92;;;;;;;;;;5077489;28;20549;-89
2021/11/15 09:13:30;;;;;;;39.78;33.58;;;;;;;;;;5077334;28;20195;-89
2021/11/15 09:15:58;;;;;;;38.07;34.20;;;;;;;;;;5077338;28;20229;-89
2021/11/15 09:18:25;;;;;;;37.70;33.80;;;;;;;;;;5076778;28;20496;-89
2021/11/15 09:20:53;;;;;;;39.25;33.63;;;;;;;;;;5076989;28;20464;-90
2021/11/15 09:23:20;;;;;;;36.35;32.55;;;;;;;;;;5077217;28;20222;-87
2021/11/15 09:25:48;;;;;;;35.63;30.30;;;;;;;;;;5076863;28;20550;-88
2021/11/15 09:28:16;;;;;;;39.03;32.67;;;;;;;;;;5075956;28;20519;-81
2021/11/15 09:30:45;;;;;;;38.65;32.97;;;;;;;;;;5075681;28;20436;-81
2021/11/15 09:33:13;;;;;;;40.03;34.33;;;;;;;;;;5075560;28;20545;-81
2021/11/15 09:35:47;;;;;;;36.53;32.20;;;;;;;;;;5075763;28;20222;-82
2021/11/15 09:38:15;;;;;;;35.10;31.30;;;;;;;;;;5075717;28;20511;-82
2021/11/15 09:40:42;;;;;;;36.97;32.27;;;;;;;;;;5075636;28;20454;-82
2021/11/15 09:43:10;;;;;;;35.93;32.47;;;;;;;;;;5075171;28;20844;-82
2021/11/15 09:45:37;;;;;;;37.63;33.93;;;;;;;;;;5075253;28;20901;-81
2021/11/15 09:48:09;;;;;;;39.78;35.67;;;;;;;;;;5075378;28;20417;-82
2021/11/15 09:50:37;;;;;;;38.60;34.40;;;;;;;;;;5075126;28;20195;-82
2021/11/15 09:53:04;;;;;;;36.47;32.53;;;;;;;;;;5074920;28;20988;-82
2021/11/15 09:55:32;;;;;;;36.73;32.80;;;;;;;;;;5075181;28;20473;-81
2021/11/15 09:58:00;;;;;;;31.33;28.47;;;;;;;;;;5075013;28;20483;-81
2021/11/15 10:00:28;;;;;;;38.10;33.23;;;;;;;;;;5075254;28;20423;-81
2021/11/15 10:02:57;;;;;;;37.17;33.50;;;;;;;;;;5075132;28;20766;-82
2021/11/15 10:05:26;;;;;;;36.23;31.80;;;;;;;;;;5075310;28;20481;-81
2021/11/15 10:07:56;;;;;;;37.10;33.13;;;;;;;;;;5075161;28;20456;-82
2021/11/15 10:10:28;;;;;;;36.90;33.05;;;;;;;;;;5075172;28;20430;-82
2021/11/15 10:13:06;;;;;;;37.37;32.83;;;;;;;;;;5074585;28;20687;-82
2021/11/15 10:15:45;;;;;;;42.97;36.83;;;;;;;;;;5075116;28;20412;-83
2021/11/15 10:18:13;;;;;;;36.77;32.83;;;;;;;;;;5074511;28;20214;-82
2021/11/15 10:20:49;;;;;;;38.08;34.08;;;;;;;;;;5074874;28;20442;-82
2021/11/15 10:23:33;;;;;;;39.75;35.40;;;;;;;;;;5074901;28;20202;-81
2021/11/15 10:26:02;;;;;;;40.40;33.88;;;;;;;;;;5074931;28;20625;-81
2021/11/15 10:28:32;;;;;;;39.33;34.93;;;;;;;;;;5074744;28;20237;-81
2021/11/15 10:31:00;;;;;;;39.50;34.40;;;;;;;;;;5074329;28;20770;-82
2021/11/15 10:33:38;;;;;;;40.50;33.63;;;;;;;;;;5074642;28;20423;-81
2021/11/15 10:36:07;;;;;;;39.10;33.45;;;;;;;;;;5074603;28;20441;-81
2021/11/15 10:38:42;;;;;;;37.72;33.63;;;;;;;;;;5074399;28;20219;-81
2021/11/15 10:41:13;;;;;;;39.38;33.22;;;;;;;;;;5074433;28;20218;-81
2021/11/15 10:43:40;;;;;;;38.57;34.57;;;;;;;;;;5074340;28;20195;-82
2021/11/15 10:46:08;;;;;;;37.33;33.63;;;;;;;;;;5073960;28;20428;-81
2021/11/15 10:48:46;;;;;;;37.27;33.30;;;;;;;;;;5074120;28;20221;-79
2021/11/15 10:51:17;;;;;;;37.53;33.80;;;;;;;;;;5073945;28;20457;-82
2021/11/15 10:53:55;;;;;;;36.30;32.60;;;;;;;;;;5073780;28;20448;-82
2021/11/15 10:56:29;;;;;;;38.70;34.55;;;;;;;;;;5058055;28;20452;-82
2021/11/15 10:58:57;;;;;;;37.95;33.80;;;;;;;;;;5073250;28;20220;-81
2021/11/15 11:01:31;;;;;;;39.57;35.37;;;;;;;;;;5074168;28;20582;-81
2021/11/15 11:04:07;;;;;;;37.03;33.17;;;;;;;;;;5073927;28;20503;-81
2021/11/15 11:06:55;;;;;;;33.83;30.50;;;;;;;;;;5073996;28;20192;-82
2021/11/15 11:09:33;;;;;;;35.58;32.25;;;;;;;;;;5073745;28;20420;-81
2021/11/15 11:12:08;;;;;;;35.75;32.35;;;;;;;;;;5073511;28;20674;-82
2021/11/15 11:14:36;;;;;;;37.57;33.10;;;;;;;;;;5073807;28;20222;-81
2021/11/15 11:17:06;;;;;;;33.90;30.50;;;;;;;;;;5073309;28;20486;-81
2021/11/15 11:19:36;;;;;;;33.60;30.40;;;;;;;;;;5073390;28;20574;-81
2021/11/15 11:22:26;;;;;;;36.00;32.37;;;;;;;;;;5073338;28;20444;-82
2021/11/15 11:27:36;;;;;;;34.83;31.67;;;;;;;;;;5067599;28;20502;-82
2021/11/15 11:30:05;;;;;;;34.23;30.87;;;;;;;;;;5073367;28;20419;-82
2021/11/15 11:32:32;;;;;;;36.90;33.50;;;;;;;;;;5073494;28;20431;-81
2021/11/15 11:35:01;;;;;;;31.97;28.87;;;;;;;;;;5073401;28;20437;-81
2021/11/15 11:37:30;;;;;;;32.23;29.40;;;;;;;;;;5073220;28;20811;-81
2021/11/15 11:39:59;;;;;;;36.77;33.07;;;;;;;;;;5071894;28;20452;-81
2021/11/15 11:42:26;;;;;;;33.67;30.53;;;;;;;;;;5060980;28;20512;-82
2021/11/15 11:44:54;;;;;;;34.85;31.35;;;;;;;;;;5055406;28;20447;-82
2021/11/15 11:47:23;;;;;;;35.07;31.87;;;;;;;;;;5061024;28;20562;-81
2021/11/15 11:49:51;;;;;;;35.38;32.22;;;;;;;;;;5072585;28;20518;-81
2021/11/15 11:52:20;;;;;;;35.30;31.77;;;;;;;;;;5072799;28;20247;-82
2021/11/15 11:54:50;;;;;;;35.50;32.23;;;;;;;;;;5073171;28;20542;-80
2021/11/15 11:57:21;;;;;;;35.25;32.15;;;;;;;;;;5072807;28;20456;-82
2021/11/15 12:00:03;;;;;;;35.87;32.53;;;;;;;;;;5072275;28;20238;-81
2021/11/15 12:02:31;;;;;;;34.97;31.90;;;;;;;;;;5072605;28;20443;-81
2021/11/15 12:05:02;;;;;;;33.83;30.63;;;;;;;;;;5054617;28;20450;-82
2021/11/15 12:07:32;;;;;;;34.55;31.45;;;;;;;;;;5072970;28;20196;-81
2021/11/15 12:10:01;;;;;;;35.27;32.07;;;;;;;;;;5071754;28;20619;-81
2021/11/15 12:12:48;;;;;;;34.53;31.05;;;;;;;;;;5072711;28;20424;-80
2021/11/15 12:15:29;;;;;;;34.83;31.63;;;;;;;;;;5072413;28;20210;-81
2021/11/15 12:18:05;;;;;;;35.43;32.00;;;;;;;;;;5072611;28;20485;-81
2021/11/15 12:20:32;;;;;;;33.30;30.10;;;;;;;;;;5072623;28;20536;-81
2021/11/15 12:23:00;;;;;;;32.63;29.83;;;;;;;;;;5072700;28;20420;-81
2021/11/15 12:25:30;;;;;;;33.30;30.40;;;;;;;;;;5072588;28;20882;-81
2021/11/15 12:27:59;;;;;;;36.40;33.07;;;;;;;;;;5072460;28;20198;-81
2021/11/15 12:30:28;;;;;;;32.92;30.23;;;;;;;;;;5072838;28;20476;-83
2021/11/15 12:33:17;;;;;;;35.70;32.80;;;;;;;;;;5072747;28;20191;-83
2021/11/15 12:36:02;;;;;;;35.90;32.70;;;;;;;;;;5072568;28;20543;-84
2021/11/15 12:38:38;;;;;;;35.67;32.08;;;;;;;;;;5072445;28;20333;-83
2021/11/15 12:41:29;;;;;;;34.50;31.20;;;;;;;;;;5072356;28;20293;-82
2021/11/15 12:44:14;;;;;;;35.10;31.80;;;;;;;;;;5072191;28;20767;-82
2021/11/15 12:46:43;;;;;;;34.63;31.42;;;;;;;;;;5072266;28;20420;-82
2021/11/15 12:49:17;;;;;;;34.33;31.20;;;;;;;;;;5072334;28;20665;-82
2021/11/15 12:51:49;;;;;;;35.28;31.98;;;;;;;;;;5072305;28;20461;-83
2021/11/15 12:54:17;;;;;;;34.90;31.98;;;;;;;;;;5072099;28;20242;-82
2021/11/15 12:56:47;;;;;;;30.85;28.27;;;;;;;;;;5072270;28;20723;-82
2021/11/15 12:59:14;;;;;;;32.53;29.53;;;;;;;;;;5072553;28;20290;-84
2021/11/15 13:01:42;;;;;;;34.50;31.40;;;;;;;;;;5072634;28;20780;-85
2021/11/15 13:04:09;;;;;;;35.20;32.10;;;;;;;;;;5054660;28;20514;-88
2021/11/15 13:06:37;;;;;;;33.65;30.75;;;;;;;;;;5072155;28;20453;-83
2021/11/15 13:09:04;;;;;;;28.90;26.60;;;;;;;;;;5072059;28;20596;-83
2021/11/15 13:11:32;;;;;;;34.53;31.37;;;;;;;;;;5072536;28;20423;-83
2021/11/15 13:14:01;;;;;;;34.63;31.30;;;;;;;;;;5072178;28;20549;-83
2021/11/15 13:16:29;;;;;;;35.33;32.05;;;;;;;;;;5052897;28;20427;-82
2021/11/15 13:18:58;;;;;;;35.83;32.27;;;;;;;;;;5071872;28;20214;-83
2021/11/15 13:21:25;;;;;;;35.50;31.97;;;;;;;;;;5073019;28;20411;-83
2021/11/15 13:23:54;;;;;;;38.90;35.20;;;;;;;;;;5075800;28;20444;-84
2021/11/15 13:26:21;;;;;;;38.23;34.23;;;;;;;;;;5075608;28;20815;-83
2021/11/15 13:28:48;;;;;;;34.20;31.00;;;;;;;;;;5075782;28;20420;-83
2021/11/15 13:31:17;;;;;;;34.42;31.33;;;;;;;;;;5075674;28;20444;-83
2021/11/15 13:33:44;;;;;;;36.03;32.83;;;;;;;;;;5075520;28;20279;-83
2021/11/15 13:36:12;;;;;;;36.60;33.23;;;;;;;;;;5075661;28;20188;-82
2021/11/15 13:38:39;;;;;;;36.35;32.88;;;;;;;;;;5075275;28;20480;-83
2021/11/15 13:41:07;;;;;;;36.27;32.43;;;;;;;;;;5075300;28;20238;-82
2021/11/15 13:43:34;;;;;;;35.47;32.07;;;;;;;;;;5057942;28;20456;-84
2021/11/15 13:46:07;;;;;;;33.37;30.17;;;;;;;;;;5075494;28;20445;-84
2021/11/15 13:48:35;;;;;;;35.80;32.40;;;;;;;;;;5075358;28;20893;-83
2021/11/15 13:51:04;;;;;;;34.37;31.37;;;;;;;;;;5075159;28;20922;-83
2021/11/15 13:53:32;;;;;;;34.67;31.47;;;;;;;;;;5074691;28;20816;-83
2021/11/15 13:56:00;;;;;;;35.70;32.40;;;;;;;;;;5074897;28;20444;-81
2021/11/15 13:58:31;;;;;;;35.40;31.90;;;;;;;;;;5075012;28;20878;-83
2021/11/15 14:00:58;;;;;;;34.03;31.03;;;;;;;;;;5074967;28;20416;-83
2021/11/15 14:03:26;;;;;;;35.27;32.30;;;;;;;;;;5076290;28;20447;-84
2021/11/15 14:05:54;;;;;;;38.25;34.35;;;;;;;;;;5075562;28;20801;-83
2021/11/15 14:08:22;;;;;;;38.27;34.67;;;;;;;;;;5075351;28;20192;-83
2021/11/15 14:10:49;;;;;;;35.60;32.00;;;;;;;;;;5075239;28;20468;-83
2021/11/15 14:13:17;;;;;;;37.07;33.40;;;;;;;;;;5075160;28;20441;-83
2021/11/15 14:15:44;;;;;;;38.33;34.63;;;;;;;;;;5074692;28;20514;-84
2021/11/15 14:18:12;;;;;;;37.30;33.73;;;;;;;;;;5074792;28;20931;-83
2021/11/15 14:20:39;;;;;;;35.07;31.97;;;;;;;;;;5075130;28;20485;-86